createdAt,value
2018-08-31T00:02:03.971Z,86.20
2018-08-31T00:04:44.628Z,86.80
2018-08-31T00:06:59.313Z,87.40
2018-08-31T00:09:13.886Z,87.50
2018-08-31T00:13:36.731Z,87.50
2018-08-31T00:15:40.692Z,87.50
2018-08-31T00:17:44.951Z,87.80
2018-08-31T00:19:48.800Z,87.50
2018-08-31T00:21:53.451Z,87.80
2018-08-31T00:24:08.375Z,87.90
2018-08-31T00:26:23.466Z,87.60
2018-08-31T00:28:38.601Z,87.80
2018-08-31T00:31:53.930Z,86.80
2018-08-31T00:35:08.318Z,87.10
2018-08-31T00:39:27.749Z,88.70
2018-08-31T00:41:42.674Z,88.80
2018-08-31T00:43:57.484Z,87.70
2018-08-31T00:46:01.275Z,87.50
2018-08-31T00:48:05.542Z,87.40
2018-08-31T00:50:09.447Z,89.20
2018-08-31T00:52:13.300Z,88.10
2018-08-31T00:54:17.166Z,88.10
2018-08-31T00:56:20.917Z,89.40
2018-08-31T00:58:24.869Z,89.20
2018-08-31T01:00:28.768Z,89.10
2018-08-31T01:02:32.535Z,87.90
2018-08-31T01:04:36.433Z,87.50
2018-08-31T01:06:40.253Z,87.40
2018-08-31T01:08:44.122Z,88.60
2018-08-31T01:10:47.936Z,87.10
2018-08-31T01:12:52.606Z,86.90
2018-08-31T01:14:56.477Z,86.90
2018-08-31T01:17:00.278Z,86.90
2018-08-31T01:19:04.131Z,86.70
2018-08-31T01:21:07.947Z,86.60
2018-08-31T01:23:11.738Z,86.20
2018-08-31T01:25:15.536Z,85.30
2018-08-31T01:27:19.300Z,85.70
2018-08-31T01:29:23.706Z,86.20
2018-08-31T01:31:27.547Z,86.10
2018-08-31T01:33:31.299Z,87.40
2018-08-31T01:35:35.136Z,87.20
2018-08-31T01:37:38.893Z,87.00
2018-08-31T01:39:42.726Z,87.10
2018-08-31T01:41:46.566Z,85.70
2018-08-31T01:43:50.401Z,87.00
2018-08-31T01:45:54.233Z,86.90
2018-08-31T01:47:58.060Z,85.50
2018-08-31T01:50:01.933Z,85.50
2018-08-31T01:52:05.841Z,85.90
2018-08-31T01:54:09.646Z,86.00
2018-08-31T01:56:14.388Z,85.70
2018-08-31T01:58:18.182Z,85.60
2018-08-31T02:00:22.037Z,87.10
2018-08-31T02:02:25.802Z,85.90
2018-08-31T02:04:29.594Z,85.80
2018-08-31T02:06:34.387Z,86.10
2018-08-31T02:08:42.396Z,86.00
2018-08-31T02:10:46.195Z,87.30
2018-08-31T02:12:50.011Z,86.70
2018-08-31T02:14:53.780Z,86.00
2018-08-31T02:16:57.637Z,86.10
2018-08-31T02:19:01.425Z,86.70
2018-08-31T02:21:05.319Z,86.70
2018-08-31T02:23:09.111Z,86.40
2018-08-31T02:25:12.847Z,86.10
2018-08-31T02:27:16.637Z,84.60
2018-08-31T02:29:20.441Z,87.00
2018-08-31T02:31:24.252Z,86.50
2018-08-31T02:33:28.113Z,87.20
2018-08-31T02:35:31.904Z,85.60
2018-08-31T02:37:35.783Z,87.20
2018-08-31T02:39:39.567Z,85.50
2018-08-31T02:41:43.365Z,85.40
2018-08-31T02:43:48.491Z,85.10
2018-08-31T02:45:52.261Z,86.60
2018-08-31T02:47:56.105Z,85.10
2018-08-31T02:49:59.884Z,85.30
2018-08-31T02:52:03.811Z,85.80
2018-08-31T02:54:07.556Z,86.90
2018-08-31T02:56:12.481Z,87.00
2018-08-31T02:58:16.442Z,85.20
2018-08-31T03:00:20.201Z,85.80
2018-08-31T03:02:24.026Z,86.90
2018-08-31T03:04:27.924Z,85.40
2018-08-31T03:06:31.756Z,87.00
2018-08-31T03:08:35.623Z,85.60
2018-08-31T03:10:39.434Z,87.00
2018-08-31T03:12:43.297Z,87.40
2018-08-31T03:14:47.251Z,85.70
2018-08-31T03:16:51.112Z,87.00
2018-08-31T03:18:55.027Z,86.20
2018-08-31T03:20:58.907Z,87.50
2018-08-31T03:23:02.752Z,86.00
2018-08-31T03:25:06.714Z,87.20
2018-08-31T03:27:10.745Z,86.90
2018-08-31T03:29:14.626Z,85.80
2018-08-31T03:31:18.470Z,86.00
2018-08-31T03:33:22.322Z,85.70
2018-08-31T03:35:26.151Z,85.90
2018-08-31T03:37:29.956Z,85.60
2018-08-31T03:39:33.768Z,87.40
2018-08-31T03:41:37.765Z,87.20
2018-08-31T03:43:41.539Z,87.50
2018-08-31T03:45:45.419Z,87.40
2018-08-31T03:47:51.863Z,87.40
2018-08-31T03:49:55.784Z,85.70
2018-08-31T03:51:59.690Z,86.10
2018-08-31T03:54:03.760Z,86.50
2018-08-31T03:56:07.882Z,86.20
2018-08-31T03:58:11.685Z,86.30
2018-08-31T04:00:15.517Z,86.70
2018-08-31T04:02:19.336Z,86.90
2018-08-31T04:04:23.331Z,86.40
2018-08-31T04:06:27.227Z,86.40
2018-08-31T04:08:31.036Z,86.30
2018-08-31T04:10:34.855Z,86.30
2018-08-31T04:12:38.698Z,87.70
2018-08-31T04:14:42.498Z,87.60
2018-08-31T04:16:59.384Z,87.60
2018-08-31T04:19:09.910Z,85.20
2018-08-31T04:21:13.855Z,85.80
2018-08-31T04:23:17.842Z,85.30
2018-08-31T04:25:22.084Z,85.10
2018-08-31T04:27:26.267Z,86.80
2018-08-31T04:29:30.050Z,86.90
2018-08-31T04:31:34.129Z,86.90
2018-08-31T04:33:37.895Z,87.40
2018-08-31T04:35:41.737Z,86.00
2018-08-31T04:37:45.698Z,87.30
2018-08-31T04:39:49.625Z,87.30
2018-08-31T04:41:54.070Z,86.80
2018-08-31T04:43:58.078Z,87.40
2018-08-31T04:46:01.977Z,85.70
2018-08-31T04:48:06.295Z,88.10
2018-08-31T04:50:23.697Z,86.90
2018-08-31T04:52:29.182Z,87.20
2018-08-31T04:54:36.876Z,85.30
2018-08-31T04:56:40.693Z,85.20
2018-08-31T04:58:44.779Z,85.30
2018-08-31T05:00:48.588Z,86.50
2018-08-31T05:02:52.756Z,84.10
2018-08-31T05:04:56.742Z,83.50
2018-08-31T05:07:00.905Z,84.40
2018-08-31T05:09:06.809Z,84.00
2018-08-31T05:11:10.854Z,84.00
2018-08-31T05:13:14.706Z,84.10
2018-08-31T05:15:18.678Z,84.10
2018-08-31T05:17:22.457Z,84.80
2018-08-31T05:19:26.415Z,85.20
2018-08-31T05:21:30.291Z,85.10
2018-08-31T05:23:34.304Z,85.20
2018-08-31T05:25:38.078Z,85.40
2018-08-31T05:27:42.127Z,83.90
2018-08-31T05:29:45.960Z,86.00
2018-08-31T05:31:49.845Z,83.60
2018-08-31T05:33:53.962Z,82.20
2018-08-31T05:35:57.842Z,82.50
2018-08-31T05:38:01.732Z,83.00
2018-08-31T05:40:05.668Z,82.50
2018-08-31T05:42:09.548Z,82.50
2018-08-31T05:44:13.438Z,82.50
2018-08-31T05:46:17.270Z,82.00
2018-08-31T05:48:21.240Z,78.50
2018-08-31T05:50:25.067Z,81.00
2018-08-31T05:52:28.995Z,80.60
2018-08-31T05:54:33.010Z,80.10
2018-08-31T05:56:37.973Z,80.00
2018-08-31T05:58:41.896Z,80.20
2018-08-31T06:00:45.839Z,80.80
2018-08-31T06:02:49.778Z,81.90
2018-08-31T06:04:53.797Z,81.30
2018-08-31T06:06:57.720Z,81.40
2018-08-31T06:09:01.692Z,80.40
2018-08-31T06:11:05.576Z,81.70
2018-08-31T06:13:09.772Z,81.50
2018-08-31T06:15:13.756Z,79.50
2018-08-31T06:17:17.722Z,79.60
2018-08-31T06:19:21.567Z,78.90
2018-08-31T06:21:25.452Z,77.60
2018-08-31T06:23:29.307Z,77.20
2018-08-31T06:25:33.170Z,77.40
2018-08-31T06:27:37.237Z,79.20
2018-08-31T06:29:41.280Z,79.50
2018-08-31T06:31:45.376Z,79.90
2018-08-31T06:33:49.435Z,79.90
2018-08-31T06:35:54.347Z,80.10
2018-08-31T06:37:58.209Z,80.60
2018-08-31T06:40:02.179Z,78.90
2018-08-31T06:42:06.022Z,79.50
2018-08-31T06:44:10.013Z,80.00
2018-08-31T06:46:13.906Z,82.10
2018-08-31T06:48:17.890Z,81.10
2018-08-31T06:50:21.726Z,80.50
2018-08-31T06:52:25.620Z,77.80
2018-08-31T06:54:29.479Z,77.40
2018-08-31T06:56:33.304Z,74.60
2018-08-31T06:58:37.160Z,75.50
2018-08-31T07:00:41.131Z,73.90
2018-08-31T07:02:44.958Z,73.40
2018-08-31T07:04:48.964Z,73.90
2018-08-31T07:06:52.795Z,74.20
2018-08-31T07:08:56.748Z,73.90
2018-08-31T07:11:00.549Z,73.50
2018-08-31T07:13:04.398Z,72.60
2018-08-31T07:15:08.484Z,72.50
2018-08-31T07:17:12.369Z,70.10
2018-08-31T07:19:16.229Z,68.10
2018-08-31T07:21:20.077Z,68.50
2018-08-31T07:23:23.949Z,68.80
2018-08-31T07:25:27.743Z,67.90
2018-08-31T07:27:31.665Z,65.30
2018-08-31T07:29:35.484Z,65.10
2018-08-31T07:31:39.322Z,65.60
2018-08-31T07:33:43.191Z,65.40
2018-08-31T07:35:47.090Z,65.00
2018-08-31T07:37:50.892Z,67.00
2018-08-31T07:39:54.856Z,65.60
2018-08-31T07:41:58.645Z,65.30
2018-08-31T07:44:02.555Z,66.40
2018-08-31T07:46:06.373Z,65.20
2018-08-31T07:48:10.168Z,61.70
2018-08-31T07:50:14.040Z,61.60
2018-08-31T07:52:17.947Z,62.70
2018-08-31T07:54:21.847Z,63.50
2018-08-31T07:56:25.679Z,62.00
2018-08-31T07:58:29.690Z,63.50
2018-08-31T08:00:33.548Z,62.70
2018-08-31T08:02:37.435Z,61.00
2018-08-31T08:04:41.347Z,63.40
2018-08-31T08:06:45.246Z,58.10
2018-08-31T08:08:49.099Z,63.60
2018-08-31T08:10:53.783Z,62.80
2018-08-31T08:12:57.766Z,62.00
2018-08-31T08:15:01.723Z,54.20
2018-08-31T08:17:05.587Z,51.90
2018-08-31T08:19:09.484Z,50.00
2018-08-31T08:21:13.350Z,50.50
2018-08-31T08:23:17.162Z,49.80
2018-08-31T08:25:21.175Z,44.70
2018-08-31T08:27:25.085Z,43.20
2018-08-31T08:29:29.135Z,43.90
2018-08-31T08:31:33.005Z,45.90
2018-08-31T08:33:36.896Z,48.40
2018-08-31T08:35:40.909Z,48.30
2018-08-31T08:37:44.795Z,42.50
2018-08-31T08:39:48.613Z,43.20
2018-08-31T08:41:56.475Z,39.80
2018-08-31T08:44:00.310Z,40.50
2018-08-31T08:46:04.220Z,39.30
2018-08-31T08:48:08.318Z,40.80
2018-08-31T08:50:12.195Z,38.70
2018-08-31T08:52:16.177Z,35.00
2018-08-31T08:54:20.172Z,38.30
2018-08-31T08:56:24.102Z,40.00
2018-08-31T08:58:27.936Z,38.40
2018-08-31T09:00:31.884Z,41.90
2018-08-31T09:02:35.744Z,39.80
2018-08-31T09:04:39.693Z,40.20
2018-08-31T09:06:43.543Z,39.10
2018-08-31T09:08:48.337Z,41.20
2018-08-31T09:10:53.004Z,38.00
2018-08-31T09:12:56.856Z,36.10
2018-08-31T09:15:00.850Z,37.10
2018-08-31T09:17:04.706Z,38.70
2018-08-31T09:19:08.631Z,37.30
2018-08-31T09:21:12.520Z,37.10
2018-08-31T09:23:16.417Z,37.20
2018-08-31T09:25:20.372Z,36.80
2018-08-31T09:27:28.417Z,37.10
2018-08-31T09:29:32.340Z,35.20
2018-08-31T09:31:36.237Z,37.90
2018-08-31T09:33:40.109Z,38.40
2018-08-31T09:35:44.090Z,37.30
2018-08-31T09:37:47.914Z,29.70
2018-08-31T09:39:51.859Z,34.40
2018-08-31T09:41:55.687Z,34.40
2018-08-31T09:43:59.673Z,34.70
2018-08-31T09:46:03.937Z,30.10
2018-08-31T09:48:07.868Z,28.20
2018-08-31T09:50:11.763Z,23.90
2018-08-31T09:52:16.926Z,21.20
2018-08-31T09:54:20.752Z,21.80
2018-08-31T09:56:24.703Z,17.40
2018-08-31T09:58:28.556Z,20.00
2018-08-31T10:00:37.799Z,20.50
2018-08-31T10:02:46.702Z,16.20
2018-08-31T10:04:50.702Z,16.30
2018-08-31T10:06:54.693Z,14.30
2018-08-31T10:08:58.491Z,16.50
2018-08-31T10:11:02.401Z,14.30
2018-08-31T10:13:06.130Z,13.70
2018-08-31T10:15:10.076Z,16.80
2018-08-31T10:17:13.831Z,17.40
2018-08-31T10:19:17.805Z,17.80
2018-08-31T10:21:21.610Z,15.80
2018-08-31T10:23:25.444Z,17.40
2018-08-31T10:25:29.265Z,14.30
2018-08-31T10:27:33.122Z,15.20
2018-08-31T10:29:37.006Z,15.60
2018-08-31T10:31:40.818Z,15.50
2018-08-31T10:33:44.737Z,17.70
2018-08-31T10:35:48.515Z,14.70
2018-08-31T10:37:52.651Z,16.50
2018-08-31T10:39:56.452Z,13.80
2018-08-31T10:42:00.275Z,15.70
2018-08-31T10:44:04.089Z,13.80
2018-08-31T10:46:08.114Z,13.80
2018-08-31T10:48:11.951Z,14.90
2018-08-31T10:50:15.839Z,14.00
2018-08-31T10:52:19.734Z,15.80
2018-08-31T10:54:23.739Z,15.70
2018-08-31T10:56:27.626Z,14.20
2018-08-31T10:58:31.503Z,8.90
2018-08-31T11:00:35.374Z,10.60
2018-08-31T11:02:54.727Z,10.30
2018-08-31T11:04:58.872Z,7.80
2018-08-31T11:07:03.032Z,10.50
2018-08-31T11:09:07.449Z,6.50
2018-08-31T11:11:11.295Z,7.90
2018-08-31T11:13:15.329Z,7.10
2018-08-31T11:15:20.764Z,9.10
2018-08-31T11:17:24.586Z,14.00
2018-08-31T11:19:28.905Z,12.30
2018-08-31T11:21:52.896Z,12.20
2018-08-31T11:23:56.758Z,7.60
2018-08-31T11:26:00.622Z,5.60
2018-08-31T11:28:04.559Z,5.50
2018-08-31T11:30:09.909Z,4.70
2018-08-31T11:32:13.821Z,4.10
2018-08-31T11:34:17.697Z,7.20
2018-08-31T11:36:21.611Z,6.70
2018-08-31T11:38:25.363Z,7.20
2018-08-31T11:40:29.223Z,5.80
2018-08-31T11:42:33.021Z,7.80
2018-08-31T11:44:37.006Z,7.40
2018-08-31T11:46:40.844Z,8.80
2018-08-31T11:48:44.646Z,6.80
2018-08-31T11:50:48.413Z,8.50
2018-08-31T11:52:52.340Z,8.70
2018-08-31T11:54:56.114Z,7.10
2018-08-31T11:56:59.901Z,3.70
2018-08-31T11:59:03.680Z,1.70
2018-08-31T12:01:08.205Z,3.70
2018-08-31T12:03:11.942Z,1.70
2018-08-31T12:05:15.787Z,2.80
2018-08-31T12:07:19.640Z,5.00
2018-08-31T12:09:23.726Z,1.00
2018-08-31T12:11:27.563Z,1.00
2018-08-31T12:13:31.442Z,1.00
2018-08-31T12:15:35.216Z,1.00
2018-08-31T12:17:39.117Z,1.00
2018-08-31T12:19:42.883Z,1.00
2018-08-31T12:21:46.687Z,1.90
2018-08-31T12:23:50.522Z,1.00
2018-08-31T12:25:54.791Z,1.80
2018-08-31T12:28:00.458Z,1.90
2018-08-31T12:30:05.389Z,3.40
2018-08-31T12:32:10.061Z,1.50
2018-08-31T12:34:14.286Z,2.30
2018-08-31T12:36:18.353Z,3.90
2018-08-31T12:38:22.712Z,2.80
2018-08-31T12:40:26.747Z,4.60
2018-08-31T12:42:30.634Z,3.90
2018-08-31T12:44:34.489Z,2.70
2018-08-31T12:46:38.328Z,2.90
2018-08-31T12:48:43.133Z,1.80
2018-08-31T12:50:47.616Z,3.40
2018-08-31T12:52:52.752Z,4.70
2018-08-31T12:54:56.558Z,2.80
2018-08-31T12:57:00.426Z,2.30
2018-08-31T12:59:04.620Z,1.10
2018-08-31T13:01:08.417Z,3.90
2018-08-31T13:03:12.695Z,3.40
2018-08-31T13:05:17.021Z,3.60
2018-08-31T13:07:25.744Z,3.40
2018-08-31T13:09:32.600Z,2.40
2018-08-31T13:11:39.034Z,1.00
2018-08-31T13:13:43.228Z,1.00
2018-08-31T13:15:47.034Z,1.00
2018-08-31T13:17:51.000Z,1.00
2018-08-31T13:19:55.690Z,1.80
2018-08-31T13:21:59.480Z,2.30
2018-08-31T13:24:03.303Z,3.10
2018-08-31T13:26:26.756Z,4.60
2018-08-31T13:28:32.622Z,4.30
2018-08-31T13:30:38.818Z,2.60
2018-08-31T13:32:42.726Z,5.90
2018-08-31T13:34:46.704Z,6.60
2018-08-31T13:36:50.525Z,5.30
2018-08-31T13:38:54.333Z,6.20
2018-08-31T13:40:58.233Z,5.90
2018-08-31T13:43:02.046Z,7.30
2018-08-31T13:45:05.893Z,5.70
2018-08-31T13:47:09.834Z,7.70
2018-08-31T13:49:13.693Z,8.30
2018-08-31T13:51:17.470Z,8.40
2018-08-31T13:53:21.834Z,7.60
2018-08-31T13:55:25.749Z,6.00
2018-08-31T13:57:29.564Z,5.70
2018-08-31T13:59:33.540Z,6.90
2018-08-31T14:01:37.328Z,6.10
2018-08-31T14:03:41.201Z,4.10
2018-08-31T14:05:44.988Z,4.50
2018-08-31T14:07:48.841Z,6.70
2018-08-31T14:09:52.608Z,6.40
2018-08-31T14:11:56.508Z,6.10
2018-08-31T14:14:00.234Z,5.10
2018-08-31T14:16:04.185Z,3.50
2018-08-31T14:18:08.012Z,6.00
2018-08-31T14:20:11.800Z,1.20
2018-08-31T14:22:15.700Z,1.00
2018-08-31T14:24:19.472Z,1.00
2018-08-31T14:26:23.294Z,5.30
2018-08-31T14:28:27.139Z,3.40
2018-08-31T14:30:30.903Z,3.90
2018-08-31T14:32:34.777Z,3.10
2018-08-31T14:34:38.614Z,3.70
2018-08-31T14:36:42.565Z,1.00
2018-08-31T14:38:46.390Z,1.20
2018-08-31T14:40:50.162Z,1.00
2018-08-31T14:42:54.440Z,1.00
2018-08-31T14:44:58.199Z,1.00
2018-08-31T14:47:02.102Z,1.00
2018-08-31T14:49:06.471Z,1.00
2018-08-31T14:51:10.300Z,1.00
2018-08-31T14:53:14.217Z,2.70
2018-08-31T14:55:18.187Z,1.00
2018-08-31T14:57:21.965Z,1.00
2018-08-31T14:59:25.787Z,1.00
2018-08-31T15:01:29.568Z,1.00
2018-08-31T15:03:33.419Z,1.00
2018-08-31T15:05:37.563Z,1.00
2018-08-31T15:07:41.433Z,1.00
2018-08-31T15:09:45.194Z,1.00
2018-08-31T15:11:49.075Z,1.00
2018-08-31T15:13:52.941Z,1.00
2018-08-31T15:15:56.905Z,1.00
2018-08-31T15:18:00.723Z,1.00
2018-08-31T15:20:04.634Z,1.00
2018-08-31T15:22:08.437Z,1.00
2018-08-31T15:24:12.321Z,1.00
2018-08-31T15:26:16.086Z,1.00
2018-08-31T15:28:19.972Z,1.10
2018-08-31T15:30:23.905Z,1.00
2018-08-31T15:32:27.749Z,1.00
2018-08-31T15:34:31.542Z,1.00
2018-08-31T15:36:35.327Z,1.00
2018-08-31T15:38:39.105Z,1.00
2018-08-31T15:40:42.933Z,1.00
2018-08-31T15:42:46.715Z,1.00
2018-08-31T15:44:50.494Z,1.00
2018-08-31T15:46:54.282Z,1.00
2018-08-31T15:48:58.112Z,1.00
2018-08-31T15:51:02.017Z,1.00
2018-08-31T15:53:06.152Z,1.00
2018-08-31T15:55:09.962Z,1.00
2018-08-31T15:57:13.704Z,1.00
2018-08-31T15:59:20.291Z,1.00
2018-08-31T16:01:24.070Z,1.00
2018-08-31T16:03:29.411Z,1.00
2018-08-31T16:05:33.221Z,1.00
2018-08-31T16:07:37.610Z,1.00
2018-08-31T16:09:41.435Z,1.00
2018-08-31T16:11:45.378Z,1.00
2018-08-31T16:13:49.304Z,1.00
2018-08-31T16:15:53.315Z,1.00
2018-08-31T16:17:57.270Z,1.00
2018-08-31T16:20:01.178Z,1.00
2018-08-31T16:22:04.990Z,1.00
2018-08-31T16:24:08.823Z,1.00
2018-08-31T16:26:12.624Z,1.00
2018-08-31T16:28:16.450Z,1.00
2018-08-31T16:30:20.921Z,1.00
2018-08-31T16:32:24.713Z,1.00
2018-08-31T16:34:28.699Z,1.00
2018-08-31T16:36:32.768Z,1.00
2018-08-31T16:38:36.632Z,1.00
2018-08-31T16:40:40.795Z,2.10
2018-08-31T16:42:45.177Z,1.00
2018-08-31T16:44:51.717Z,1.00
2018-08-31T16:46:56.908Z,1.00
2018-08-31T16:49:01.080Z,1.00
2018-08-31T16:51:05.069Z,2.50
2018-08-31T16:53:08.899Z,1.10
2018-08-31T16:55:15.581Z,1.60
2018-08-31T16:57:19.764Z,1.00
2018-08-31T16:59:25.051Z,1.00
2018-08-31T17:01:29.004Z,1.00
2018-08-31T17:03:33.067Z,1.00
2018-08-31T17:05:37.262Z,1.40
2018-08-31T17:07:41.395Z,1.00
2018-08-31T17:09:45.549Z,1.10
2018-08-31T17:11:50.535Z,1.50
2018-08-31T17:14:00.950Z,1.00
2018-08-31T17:16:04.932Z,1.00
2018-08-31T17:18:08.929Z,2.10
2018-08-31T17:20:13.638Z,1.00
2018-08-31T17:22:18.659Z,1.00
2018-08-31T17:24:27.463Z,1.00
2018-08-31T17:26:36.626Z,2.00
2018-08-31T17:28:45.868Z,1.90
2018-08-31T17:30:54.130Z,2.00
2018-08-31T17:33:03.226Z,2.00
2018-08-31T17:35:20.828Z,1.70
2018-08-31T17:37:35.486Z,1.00
2018-08-31T17:39:52.990Z,1.70
2018-08-31T17:41:56.863Z,1.00
2018-08-31T17:44:01.110Z,1.40
2018-08-31T17:46:06.099Z,1.00
2018-08-31T17:48:12.795Z,1.20
2018-08-31T17:50:17.716Z,1.60
2018-08-31T17:52:22.093Z,1.80
2018-08-31T17:54:26.434Z,4.70
2018-08-31T17:56:30.898Z,4.70
2018-08-31T17:59:02.277Z,3.40
2018-08-31T18:01:07.159Z,3.70
2018-08-31T18:03:24.788Z,3.70
2018-08-31T18:05:29.150Z,4.50
2018-08-31T18:07:33.161Z,5.10
2018-08-31T18:09:37.123Z,5.40
2018-08-31T18:11:41.084Z,7.30
2018-08-31T18:13:44.907Z,6.50
2018-08-31T18:15:49.322Z,7.00
2018-08-31T18:17:55.657Z,8.60
2018-08-31T18:20:00.876Z,7.20
2018-08-31T18:22:04.674Z,8.90
2018-08-31T18:24:08.704Z,7.90
2018-08-31T18:26:13.310Z,9.10
2018-08-31T18:28:17.442Z,9.60
2018-08-31T18:30:23.002Z,8.80
2018-08-31T18:32:27.901Z,10.80
2018-08-31T18:34:52.963Z,10.90
2018-08-31T18:36:58.293Z,10.40
2018-08-31T18:39:02.244Z,10.60
2018-08-31T18:41:07.065Z,11.20
2018-08-31T18:43:12.400Z,12.80
2018-08-31T18:45:17.013Z,13.50
2018-08-31T18:47:24.117Z,12.40
2018-08-31T18:49:28.932Z,12.80
2018-08-31T18:51:32.734Z,13.70
2018-08-31T18:53:38.217Z,16.10
2018-08-31T18:55:42.102Z,14.70
2018-08-31T18:57:56.017Z,15.80
2018-08-31T19:00:03.801Z,14.40
2018-08-31T19:05:11.040Z,15.40
2018-08-31T19:07:18.870Z,16.90
2018-08-31T19:09:24.153Z,16.20
2018-08-31T19:11:30.625Z,16.80
2018-08-31T19:13:35.746Z,16.70
2018-08-31T19:15:42.201Z,17.30
2018-08-31T19:17:47.964Z,16.60
2018-08-31T19:19:52.240Z,17.30
2018-08-31T19:21:56.731Z,19.20
2018-08-31T19:24:17.764Z,20.10
2018-08-31T19:26:25.455Z,20.60
2018-08-31T19:28:31.333Z,20.80
2018-08-31T19:30:37.373Z,19.60
2018-08-31T19:32:41.758Z,21.60
2018-08-31T19:34:47.999Z,20.70
2018-08-31T19:36:52.494Z,19.90
2018-08-31T19:38:56.804Z,19.20
2018-08-31T19:41:10.566Z,19.30
2018-08-31T19:43:17.923Z,19.80
2018-08-31T19:45:23.843Z,20.80
2018-08-31T19:47:47.605Z,20.70
2018-08-31T19:49:53.427Z,21.30
2018-08-31T19:51:57.314Z,20.10
2018-08-31T19:54:04.701Z,20.80
2018-08-31T19:56:08.844Z,21.30
2018-08-31T19:58:14.718Z,21.70
2018-08-31T20:00:20.135Z,22.20
2018-08-31T20:02:23.983Z,20.20
2018-08-31T20:04:37.883Z,20.90
2018-08-31T20:06:51.320Z,20.60
2018-08-31T20:08:55.317Z,19.80
2018-08-31T20:10:59.150Z,19.90
2018-08-31T20:13:02.928Z,20.50
2018-08-31T20:15:07.051Z,20.10
2018-08-31T20:17:10.844Z,21.90
2018-08-31T20:19:23.380Z,21.20
2018-08-31T20:21:29.178Z,21.60
2018-08-31T20:23:33.166Z,23.20
2018-08-31T20:25:36.951Z,23.50
2018-08-31T20:27:40.779Z,22.60
2018-08-31T20:29:44.585Z,22.10
2018-08-31T20:31:48.833Z,21.60
2018-08-31T20:33:53.100Z,22.30
2018-08-31T20:35:56.929Z,22.50
2018-08-31T20:38:00.992Z,22.60
2018-08-31T20:40:04.821Z,22.30
2018-08-31T20:42:08.885Z,23.50
2018-08-31T20:44:12.734Z,21.70
2018-08-31T20:46:16.738Z,23.80
2018-08-31T20:48:20.713Z,23.90
2018-08-31T20:50:24.726Z,22.40
2018-08-31T20:52:29.004Z,24.40
2018-08-31T20:54:33.175Z,23.10
2018-08-31T20:56:36.982Z,23.50
2018-08-31T20:58:40.988Z,24.40
2018-08-31T21:00:45.858Z,25.30
2018-08-31T21:02:49.707Z,27.50
2018-08-31T21:04:53.884Z,28.50
2018-08-31T21:06:57.859Z,28.70
2018-08-31T21:09:02.128Z,29.30
2018-08-31T21:11:05.978Z,31.10
2018-08-31T21:13:10.141Z,31.60
2018-08-31T21:15:13.936Z,34.90
2018-08-31T21:17:17.800Z,34.70
2018-08-31T21:19:21.708Z,35.30
2018-08-31T21:21:25.547Z,35.20
2018-08-31T21:23:29.386Z,36.80
2018-08-31T21:25:33.258Z,35.70
2018-08-31T21:27:37.147Z,37.20
2018-08-31T21:29:40.926Z,38.20
2018-08-31T21:31:44.829Z,36.70
2018-08-31T21:33:48.724Z,36.50
2018-08-31T21:35:52.826Z,36.80
2018-08-31T21:37:56.686Z,36.90
2018-08-31T21:40:03.899Z,35.80
2018-08-31T21:42:07.798Z,35.90
2018-08-31T21:44:12.381Z,36.20
2018-08-31T21:46:17.265Z,35.90
2018-08-31T21:48:21.187Z,34.70
2018-08-31T21:50:25.021Z,35.10
2018-08-31T21:52:28.914Z,35.10
2018-08-31T21:54:32.848Z,36.40
2018-08-31T21:56:36.724Z,37.10
2018-08-31T21:58:40.579Z,36.60
2018-08-31T22:00:44.669Z,34.70
2018-08-31T22:02:49.223Z,36.50
2018-08-31T22:04:53.238Z,35.20
2018-08-31T22:06:57.009Z,35.20
2018-08-31T22:09:00.963Z,37.00
2018-08-31T22:11:04.851Z,37.40
2018-08-31T22:13:08.795Z,37.20
2018-08-31T22:15:17.771Z,36.30
2018-08-31T22:17:21.647Z,37.30
2018-08-31T22:19:25.568Z,38.90
2018-08-31T22:21:29.434Z,41.60
2018-08-31T22:23:33.356Z,43.10
2018-08-31T22:25:37.119Z,43.80
2018-08-31T22:27:40.999Z,44.60
2018-08-31T22:29:44.860Z,43.70
2018-08-31T22:31:48.717Z,45.00
2018-08-31T22:33:52.569Z,45.40
2018-08-31T22:35:56.632Z,45.20
2018-08-31T22:38:00.469Z,47.00
2018-08-31T22:40:04.598Z,45.90
2018-08-31T22:42:08.363Z,48.80
2018-08-31T22:44:12.416Z,46.00
2018-08-31T22:46:16.237Z,46.30
2018-08-31T22:48:20.169Z,47.30
2018-08-31T22:50:24.045Z,47.50
2018-08-31T22:52:28.606Z,48.80
2018-08-31T22:54:33.349Z,47.90
2018-08-31T22:56:37.126Z,48.10
2018-08-31T22:58:41.224Z,49.40
2018-08-31T23:00:45.009Z,50.40
2018-08-31T23:02:48.794Z,49.00
2018-08-31T23:04:52.704Z,50.60
2018-08-31T23:06:56.477Z,49.90
2018-08-31T23:09:00.277Z,51.50
2018-08-31T23:11:04.019Z,52.20
2018-08-31T23:13:07.927Z,52.20
2018-08-31T23:15:11.767Z,52.60
2018-08-31T23:17:15.484Z,51.10
2018-08-31T23:19:19.265Z,51.50
2018-08-31T23:21:23.036Z,53.10
2018-08-31T23:23:33.027Z,53.00
2018-08-31T23:25:42.142Z,53.50
2018-08-31T23:27:45.871Z,53.50
2018-08-31T23:29:49.672Z,54.40
2018-08-31T23:31:53.424Z,53.20
2018-08-31T23:33:57.266Z,55.10
2018-08-31T23:36:01.041Z,55.00
2018-08-31T23:38:04.876Z,55.40
2018-08-31T23:40:08.692Z,55.40
2018-08-31T23:42:12.477Z,55.90
2018-08-31T23:44:16.289Z,55.70
2018-08-31T23:46:20.033Z,56.00
2018-08-31T23:48:24.934Z,56.50
2018-08-31T23:50:28.767Z,57.50
2018-08-31T23:52:32.521Z,58.30
2018-08-31T23:54:36.294Z,58.10
2018-08-31T23:56:40.064Z,59.80
2018-08-31T23:58:43.830Z,58.30
